sensor_id;sensor_type;location;lat;lon;timestamp;pressure;altitude;pressure_sealevel;temperature;humidity
8101;BME280;4093;53.470;9.832;2023-08-01T00:00:47;99660.22;;;20.78;91.70
8101;BME280;4093;53.470;9.832;2023-08-01T00:03:16;99666.06;;;21.05;90.56
8101;BME280;4093;53.470;9.832;2023-08-01T00:05:44;99655.94;;;21.00;90.35
8101;BME280;4093;53.470;9.832;2023-08-01T00:08:12;99640.25;;;20.98;88.94
8101;BME280;4093;53.470;9.832;2023-08-01T00:10:40;99643.63;;;21.00;89.53
8101;BME280;4093;53.470;9.832;2023-08-01T00:13:08;99632.16;;;20.79;89.20
8101;BME280;4093;53.470;9.832;2023-08-01T00:15:36;99633.81;;;20.69;90.42
8101;BME280;4093;53.470;9.832;2023-08-01T00:18:07;99617.13;;;20.12;91.99
8101;BME280;4093;53.470;9.832;2023-08-01T00:20:36;99605.38;;;19.94;93.17
8101;BME280;4093;53.470;9.832;2023-08-01T00:23:03;99615.88;;;20.40;91.79
8101;BME280;4093;53.470;9.832;2023-08-01T00:25:31;99610.19;;;20.69;90.57
8101;BME280;4093;53.470;9.832;2023-08-01T00:27:59;99599.38;;;20.38;91.36
8101;BME280;4093;53.470;9.832;2023-08-01T00:30:26;99580.63;;;20.31;90.57
8101;BME280;4093;53.470;9.832;2023-08-01T00:32:54;99591.50;;;20.38;91.96
8101;BME280;4093;53.470;9.832;2023-08-01T00:35:22;99579.56;;;20.34;91.71
8101;BME280;4093;53.470;9.832;2023-08-01T00:37:52;99567.16;;;20.47;91.08
8101;BME280;4093;53.470;9.832;2023-08-01T00:40:20;99555.44;;;20.18;92.13
8101;BME280;4093;53.470;9.832;2023-08-01T00:42:48;99564.19;;;20.63;90.95
8101;BME280;4093;53.470;9.832;2023-08-01T00:45:22;99552.81;;;20.29;91.93
8101;BME280;4093;53.470;9.832;2023-08-01T00:47:51;99566.81;;;20.63;90.59
8101;BME280;4093;53.470;9.832;2023-08-01T00:50:19;99568.84;;;20.71;89.91
8101;BME280;4093;53.470;9.832;2023-08-01T00:52:51;99565.69;;;20.21;92.71
8101;BME280;4093;53.470;9.832;2023-08-01T00:55:21;99555.72;;;20.37;91.66
8101;BME280;4093;53.470;9.832;2023-08-01T00:57:49;99550.69;;;20.45;92.01
8101;BME280;4093;53.470;9.832;2023-08-01T01:00:17;99559.44;;;20.57;91.37
8101;BME280;4093;53.470;9.832;2023-08-01T01:02:46;99546.00;;;20.26;92.69
8101;BME280;4093;53.470;9.832;2023-08-01T01:05:14;99540.53;;;20.29;92.80
8101;BME280;4093;53.470;9.832;2023-08-01T01:07:43;99532.16;;;20.13;93.29
8101;BME280;4093;53.470;9.832;2023-08-01T01:10:12;99526.91;;;20.02;93.96
8101;BME280;4093;53.470;9.832;2023-08-01T01:12:40;99530.16;;;20.28;93.27
8101;BME280;4093;53.470;9.832;2023-08-01T01:15:08;99523.81;;;20.42;92.07
8101;BME280;4093;53.470;9.832;2023-08-01T01:17:36;99516.06;;;20.29;92.19
8101;BME280;4093;53.470;9.832;2023-08-01T01:20:05;99520.34;;;20.30;93.17
8101;BME280;4093;53.470;9.832;2023-08-01T01:22:34;99514.88;;;20.22;93.51
8101;BME280;4093;53.470;9.832;2023-08-01T01:25:06;99510.09;;;20.16;93.43
8101;BME280;4093;53.470;9.832;2023-08-01T01:27:35;99510.09;;;20.38;92.32
8101;BME280;4093;53.470;9.832;2023-08-01T01:30:05;99506.03;;;20.11;93.96
8101;BME280;4093;53.470;9.832;2023-08-01T01:32:34;99496.50;;;20.10;93.35
8101;BME280;4093;53.470;9.832;2023-08-01T01:35:03;99502.34;;;20.25;93.64
8101;BME280;4093;53.470;9.832;2023-08-01T01:37:31;99501.00;;;20.42;93.43
8101;BME280;4093;53.470;9.832;2023-08-01T01:40:00;99492.91;;;20.23;94.53
8101;BME280;4093;53.470;9.832;2023-08-01T01:42:29;99490.41;;;20.44;93.16
8101;BME280;4093;53.470;9.832;2023-08-01T01:44:56;99490.28;;;20.45;92.43
8101;BME280;4093;53.470;9.832;2023-08-01T01:47:24;99483.84;;;20.38;93.10
8101;BME280;4093;53.470;9.832;2023-08-01T01:49:52;99469.75;;;20.39;93.08
8101;BME280;4093;53.470;9.832;2023-08-01T01:52:19;99459.41;;;19.57;97.12
8101;BME280;4093;53.470;9.832;2023-08-01T01:54:47;99473.81;;;20.43;94.07
8101;BME280;4093;53.470;9.832;2023-08-01T01:57:16;99475.97;;;20.27;94.42
8101;BME280;4093;53.470;9.832;2023-08-01T01:59:44;99470.50;;;19.61;97.52
8101;BME280;4093;53.470;9.832;2023-08-01T02:02:12;99475.25;;;20.14;95.86
8101;BME280;4093;53.470;9.832;2023-08-01T02:04:40;99475.22;;;20.02;96.69
8101;BME280;4093;53.470;9.832;2023-08-01T02:07:08;99474.28;;;20.15;95.43
8101;BME280;4093;53.470;9.832;2023-08-01T02:09:36;99479.31;;;20.51;94.27
8101;BME280;4093;53.470;9.832;2023-08-01T02:12:04;99463.09;;;20.13;95.38
8101;BME280;4093;53.470;9.832;2023-08-01T02:14:36;99475.59;;;20.20;95.51
8101;BME280;4093;53.470;9.832;2023-08-01T02:17:04;99475.94;;;20.49;94.78
8101;BME280;4093;53.470;9.832;2023-08-01T02:19:32;99468.56;;;20.43;94.82
8101;BME280;4093;53.470;9.832;2023-08-01T02:22:00;99461.41;;;20.23;95.18
8101;BME280;4093;53.470;9.832;2023-08-01T02:24:27;99448.88;;;20.04;96.52
8101;BME280;4093;53.470;9.832;2023-08-01T02:26:55;99446.03;;;20.18;94.88
8101;BME280;4093;53.470;9.832;2023-08-01T02:29:23;99433.63;;;20.09;95.86
8101;BME280;4093;53.470;9.832;2023-08-01T02:31:56;99455.69;;;20.06;96.60
8101;BME280;4093;53.470;9.832;2023-08-01T02:34:24;99454.50;;;20.22;95.92
8101;BME280;4093;53.470;9.832;2023-08-01T02:36:51;99446.47;;;19.90;97.11
8101;BME280;4093;53.470;9.832;2023-08-01T02:39:19;99452.94;;;20.19;95.33
8101;BME280;4093;53.470;9.832;2023-08-01T02:41:47;99439.44;;;20.35;94.05
8101;BME280;4093;53.470;9.832;2023-08-01T02:44:15;99438.94;;;20.52;93.98
8101;BME280;4093;53.470;9.832;2023-08-01T02:46:43;99435.38;;;20.42;94.30
8101;BME280;4093;53.470;9.832;2023-08-01T02:49:12;99431.66;;;20.33;94.18
8101;BME280;4093;53.470;9.832;2023-08-01T02:51:39;99433.59;;;20.31;94.18
8101;BME280;4093;53.470;9.832;2023-08-01T02:54:07;99428.94;;;20.35;94.46
8101;BME280;4093;53.470;9.832;2023-08-01T02:56:35;99430.75;;;20.23;95.04
8101;BME280;4093;53.470;9.832;2023-08-01T02:59:07;99422.50;;;20.17;94.47
8101;BME280;4093;53.470;9.832;2023-08-01T03:01:36;99423.25;;;20.19;95.51
8101;BME280;4093;53.470;9.832;2023-08-01T03:04:04;99414.16;;;20.23;94.84
8101;BME280;4093;53.470;9.832;2023-08-01T03:06:34;99418.78;;;20.42;94.40
8101;BME280;4093;53.470;9.832;2023-08-01T03:09:02;99411.78;;;20.08;95.27
8101;BME280;4093;53.470;9.832;2023-08-01T03:11:29;99418.91;;;20.29;94.54
8101;BME280;4093;53.470;9.832;2023-08-01T03:13:57;99410.19;;;20.40;94.10
8101;BME280;4093;53.470;9.832;2023-08-01T03:16:25;99398.84;;;20.39;94.17
8101;BME280;4093;53.470;9.832;2023-08-01T03:18:52;99406.38;;;20.32;94.26
8101;BME280;4093;53.470;9.832;2023-08-01T03:21:20;99393.78;;;19.93;96.67
8101;BME280;4093;53.470;9.832;2023-08-01T03:23:49;99400.84;;;19.81;96.76
8101;BME280;4093;53.470;9.832;2023-08-01T03:26:17;99393.53;;;19.73;97.35
8101;BME280;4093;53.470;9.832;2023-08-01T03:28:45;99410.97;;;19.97;96.32
8101;BME280;4093;53.470;9.832;2023-08-01T03:31:12;99407.69;;;20.27;94.94
8101;BME280;4093;53.470;9.832;2023-08-01T03:33:40;99404.34;;;20.36;94.21
8101;BME280;4093;53.470;9.832;2023-08-01T03:36:08;99394.84;;;20.13;95.07
8101;BME280;4093;53.470;9.832;2023-08-01T03:38:36;99395.03;;;20.43;94.09
8101;BME280;4093;53.470;9.832;2023-08-01T03:41:05;99402.06;;;20.54;93.21
8101;BME280;4093;53.470;9.832;2023-08-01T03:43:32;99390.97;;;20.39;93.74
8101;BME280;4093;53.470;9.832;2023-08-01T03:46:00;99396.13;;;20.41;93.65
8101;BME280;4093;53.470;9.832;2023-08-01T03:48:28;99390.03;;;20.40;93.44
8101;BME280;4093;53.470;9.832;2023-08-01T03:50:56;99393.09;;;20.45;93.20
8101;BME280;4093;53.470;9.832;2023-08-01T03:53:23;99384.84;;;19.84;96.08
8101;BME280;4093;53.470;9.832;2023-08-01T03:55:51;99376.50;;;19.90;95.60
8101;BME280;4093;53.470;9.832;2023-08-01T03:58:20;99389.59;;;20.01;96.26
8101;BME280;4093;53.470;9.832;2023-08-01T04:00:48;99383.91;;;19.96;95.42
8101;BME280;4093;53.470;9.832;2023-08-01T04:03:15;99392.69;;;20.06;94.19
8101;BME280;4093;53.470;9.832;2023-08-01T04:05:43;99391.00;;;20.05;95.01
8101;BME280;4093;53.470;9.832;2023-08-01T04:08:11;99395.28;;;20.18;94.63
8101;BME280;4093;53.470;9.832;2023-08-01T04:10:39;99387.09;;;20.00;95.19
8101;BME280;4093;53.470;9.832;2023-08-01T04:13:06;99395.88;;;20.32;94.15
8101;BME280;4093;53.470;9.832;2023-08-01T04:15:35;99390.03;;;20.18;94.07
8101;BME280;4093;53.470;9.832;2023-08-01T04:18:03;99397.78;;;20.42;93.50
8101;BME280;4093;53.470;9.832;2023-08-01T04:20:31;99398.41;;;20.34;93.72
8101;BME280;4093;53.470;9.832;2023-08-01T04:22:59;99402.91;;;20.54;93.04
8101;BME280;4093;53.470;9.832;2023-08-01T04:25:27;99402.06;;;20.65;92.08
8101;BME280;4093;53.470;9.832;2023-08-01T04:27:54;99374.34;;;19.95;94.67
8101;BME280;4093;53.470;9.832;2023-08-01T04:30:22;99372.91;;;19.80;95.93
8101;BME280;4093;53.470;9.832;2023-08-01T04:32:51;99395.41;;;20.27;93.93
8101;BME280;4093;53.470;9.832;2023-08-01T04:35:19;99382.94;;;19.97;95.26
8101;BME280;4093;53.470;9.832;2023-08-01T04:37:47;99381.75;;;19.90;95.99
8101;BME280;4093;53.470;9.832;2023-08-01T04:40:15;99386.84;;;20.14;94.89
8101;BME280;4093;53.470;9.832;2023-08-01T04:42:43;99382.00;;;19.87;95.97
8101;BME280;4093;53.470;9.832;2023-08-01T04:45:10;99394.00;;;20.01;96.48
8101;BME280;4093;53.470;9.832;2023-08-01T04:47:38;99383.28;;;20.04;95.05
8101;BME280;4093;53.470;9.832;2023-08-01T04:50:08;99387.69;;;19.92;95.08
8101;BME280;4093;53.470;9.832;2023-08-01T04:52:36;99397.56;;;20.22;94.22
8101;BME280;4093;53.470;9.832;2023-08-01T04:55:04;99390.44;;;20.13;94.03
8101;BME280;4093;53.470;9.832;2023-08-01T04:57:32;99389.25;;;19.95;95.07
8101;BME280;4093;53.470;9.832;2023-08-01T05:00:00;99395.31;;;19.95;95.52
8101;BME280;4093;53.470;9.832;2023-08-01T05:02:28;99393.19;;;20.00;94.14
8101;BME280;4093;53.470;9.832;2023-08-01T05:04:55;99392.09;;;20.25;94.52
8101;BME280;4093;53.470;9.832;2023-08-01T05:07:24;99379.09;;;20.01;93.83
8101;BME280;4093;53.470;9.832;2023-08-01T05:09:52;99389.22;;;20.17;94.34
8101;BME280;4093;53.470;9.832;2023-08-01T05:12:20;99391.47;;;20.33;93.27
8101;BME280;4093;53.470;9.832;2023-08-01T05:14:48;99390.03;;;20.40;93.24
8101;BME280;4093;53.470;9.832;2023-08-01T05:17:15;99382.06;;;20.19;93.33
8101;BME280;4093;53.470;9.832;2023-08-01T05:19:43;99393.25;;;20.32;92.31
8101;BME280;4093;53.470;9.832;2023-08-01T05:22:11;99380.50;;;20.05;93.50
8101;BME280;4093;53.470;9.832;2023-08-01T05:24:40;99382.69;;;20.00;94.16
8101;BME280;4093;53.470;9.832;2023-08-01T05:27:07;99384.44;;;20.11;93.78
8101;BME280;4093;53.470;9.832;2023-08-01T05:29:35;99385.19;;;20.02;93.37
8101;BME280;4093;53.470;9.832;2023-08-01T05:32:03;99386.00;;;20.02;93.73
8101;BME280;4093;53.470;9.832;2023-08-01T05:34:31;99381.38;;;19.95;93.78
8101;BME280;4093;53.470;9.832;2023-08-01T05:36:59;99380.78;;;19.80;95.03
8101;BME280;4093;53.470;9.832;2023-08-01T05:39:26;99389.34;;;20.16;92.95
8101;BME280;4093;53.470;9.832;2023-08-01T05:41:55;99382.31;;;20.05;92.45
8101;BME280;4093;53.470;9.832;2023-08-01T05:44:23;99391.16;;;20.15;92.60
8101;BME280;4093;53.470;9.832;2023-08-01T05:46:51;99387.94;;;20.00;93.65
8101;BME280;4093;53.470;9.832;2023-08-01T05:49:18;99396.03;;;20.08;93.36
8101;BME280;4093;53.470;9.832;2023-08-01T05:51:47;99390.06;;;19.95;93.78
8101;BME280;4093;53.470;9.832;2023-08-01T05:54:14;99395.69;;;20.13;92.99
8101;BME280;4093;53.470;9.832;2023-08-01T05:56:42;99393.00;;;20.36;92.04
8101;BME280;4093;53.470;9.832;2023-08-01T05:59:11;99396.66;;;20.12;91.87
8101;BME280;4093;53.470;9.832;2023-08-01T06:01:39;99398.66;;;20.08;92.18
8101;BME280;4093;53.470;9.832;2023-08-01T06:04:07;99389.22;;;20.17;91.88
8101;BME280;4093;53.470;9.832;2023-08-01T06:06:35;99392.41;;;20.32;91.02
8101;BME280;4093;53.470;9.832;2023-08-01T06:09:03;99395.72;;;20.45;91.03
8101;BME280;4093;53.470;9.832;2023-08-01T06:11:30;99388.56;;;20.47;90.83
8101;BME280;4093;53.470;9.832;2023-08-01T06:14:00;99402.66;;;20.90;90.18
8101;BME280;4093;53.470;9.832;2023-08-01T06:16:29;99392.63;;;21.58;86.39
8101;BME280;4093;53.470;9.832;2023-08-01T06:18:56;99399.44;;;21.60;86.11
8101;BME280;4093;53.470;9.832;2023-08-01T06:21:24;99387.06;;;21.09;86.86
8101;BME280;4093;53.470;9.832;2023-08-01T06:23:52;99379.72;;;20.60;88.00
8101;BME280;4093;53.470;9.832;2023-08-01T06:26:20;99388.13;;;21.07;87.13
8101;BME280;4093;53.470;9.832;2023-08-01T06:28:48;99378.16;;;20.68;87.87
8101;BME280;4093;53.470;9.832;2023-08-01T06:31:15;99377.03;;;20.71;88.12
8101;BME280;4093;53.470;9.832;2023-08-01T06:33:45;99397.09;;;21.04;87.28
8101;BME280;4093;53.470;9.832;2023-08-01T06:36:12;99390.56;;;20.98;85.97
8101;BME280;4093;53.470;9.832;2023-08-01T06:38:43;99394.78;;;20.58;87.03
8101;BME280;4093;53.470;9.832;2023-08-01T06:41:10;99395.03;;;20.43;87.71
8101;BME280;4093;53.470;9.832;2023-08-01T06:43:38;99397.88;;;20.63;86.61
8101;BME280;4093;53.470;9.832;2023-08-01T06:46:06;99398.38;;;20.56;86.12
8101;BME280;4093;53.470;9.832;2023-08-01T06:48:34;99397.81;;;20.74;85.61
8101;BME280;4093;53.470;9.832;2023-08-01T06:51:03;99391.63;;;20.75;84.66
8101;BME280;4093;53.470;9.832;2023-08-01T06:53:31;99388.31;;;20.62;85.49
8101;BME280;4093;53.470;9.832;2023-08-01T06:55:58;99394.75;;;20.69;85.17
8101;BME280;4093;53.470;9.832;2023-08-01T06:58:26;99394.75;;;20.69;85.81
8101;BME280;4093;53.470;9.832;2023-08-01T07:00:54;99390.06;;;20.72;85.79
8101;BME280;4093;53.470;9.832;2023-08-01T07:03:21;99402.72;;;20.99;85.20
8101;BME280;4093;53.470;9.832;2023-08-01T07:05:49;99386.38;;;20.96;85.09
8101;BME280;4093;53.470;9.832;2023-08-01T07:08:19;99397.34;;;21.01;85.16
8101;BME280;4093;53.470;9.832;2023-08-01T07:10:48;99400.00;;;21.22;84.20
8101;BME280;4093;53.470;9.832;2023-08-01T07:13:15;99406.75;;;21.57;83.64
8101;BME280;4093;53.470;9.832;2023-08-01T07:15:45;99407.91;;;22.35;81.21
8101;BME280;4093;53.470;9.832;2023-08-01T07:18:13;99415.94;;;23.79;76.94
8101;BME280;4093;53.470;9.832;2023-08-01T07:20:41;99410.19;;;24.21;73.09
8101;BME280;4093;53.470;9.832;2023-08-01T07:23:09;99387.81;;;24.15;72.83
8101;BME280;4093;53.470;9.832;2023-08-01T07:25:38;99381.06;;;24.03;72.51
8101;BME280;4093;53.470;9.832;2023-08-01T07:28:06;99392.91;;;24.27;72.52
8101;BME280;4093;53.470;9.832;2023-08-01T07:30:34;99401.50;;;24.74;72.77
8101;BME280;4093;53.470;9.832;2023-08-01T07:33:01;99396.56;;;25.33;69.58
8101;BME280;4093;53.470;9.832;2023-08-01T07:35:29;99385.94;;;24.53;71.60
8101;BME280;4093;53.470;9.832;2023-08-01T07:37:57;99410.47;;;27.05;64.36
8101;BME280;4093;53.470;9.832;2023-08-01T07:40:25;99404.59;;;28.14;60.92
8101;BME280;4093;53.470;9.832;2023-08-01T07:42:54;99418.94;;;29.36;60.42
8101;BME280;4093;53.470;9.832;2023-08-01T07:45:22;99401.72;;;29.47;57.90
8101;BME280;4093;53.470;9.832;2023-08-01T07:47:50;99381.34;;;29.16;58.17
8101;BME280;4093;53.470;9.832;2023-08-01T07:50:17;99380.84;;;29.36;57.46
8101;BME280;4093;53.470;9.832;2023-08-01T07:52:45;99379.09;;;29.58;56.48
8101;BME280;4093;53.470;9.832;2023-08-01T07:55:14;99386.09;;;27.26;61.06
8101;BME280;4093;53.470;9.832;2023-08-01T07:57:43;99392.56;;;27.95;60.58
8101;BME280;4093;53.470;9.832;2023-08-01T08:00:13;99386.81;;;27.67;60.78
8101;BME280;4093;53.470;9.832;2023-08-01T08:02:41;99402.94;;;26.51;64.79
8101;BME280;4093;53.470;9.832;2023-08-01T08:05:09;99410.78;;;25.58;67.09
8101;BME280;4093;53.470;9.832;2023-08-01T08:07:38;99404.22;;;24.64;70.13
8101;BME280;4093;53.470;9.832;2023-08-01T08:10:06;99405.47;;;24.15;71.73
8101;BME280;4093;53.470;9.832;2023-08-01T08:12:34;99422.63;;;23.73;73.21
8101;BME280;4093;53.470;9.832;2023-08-01T08:15:02;99424.03;;;23.48;74.61
8101;BME280;4093;53.470;9.832;2023-08-01T08:17:31;99421.78;;;23.63;73.63
8101;BME280;4093;53.470;9.832;2023-08-01T08:19:59;99423.03;;;23.78;73.49
8101;BME280;4093;53.470;9.832;2023-08-01T08:22:27;99418.88;;;23.76;74.34
8101;BME280;4093;53.470;9.832;2023-08-01T08:24:56;99428.13;;;25.26;69.84
8101;BME280;4093;53.470;9.832;2023-08-01T08:27:24;99416.84;;;25.50;67.90
8101;BME280;4093;53.470;9.832;2023-08-01T08:29:52;99409.53;;;25.70;66.91
8101;BME280;4093;53.470;9.832;2023-08-01T08:32:20;99414.88;;;25.08;69.97
8101;BME280;4093;53.470;9.832;2023-08-01T08:34:49;99429.88;;;26.97;66.28
8101;BME280;4093;53.470;9.832;2023-08-01T08:37:20;99410.81;;;26.26;64.41
8101;BME280;4093;53.470;9.832;2023-08-01T08:39:48;99416.88;;;25.76;67.16
8101;BME280;4093;53.470;9.832;2023-08-01T08:42:17;99419.94;;;25.90;67.10
8101;BME280;4093;53.470;9.832;2023-08-01T08:44:49;99418.84;;;26.08;66.76
8101;BME280;4093;53.470;9.832;2023-08-01T08:47:24;99408.91;;;24.70;68.88
8101;BME280;4093;53.470;9.832;2023-08-01T08:49:55;99427.53;;;23.96;71.53
8101;BME280;4093;53.470;9.832;2023-08-01T08:52:24;99427.94;;;22.67;76.65
8101;BME280;4093;53.470;9.832;2023-08-01T08:54:52;99441.69;;;23.48;74.68
8101;BME280;4093;53.470;9.832;2023-08-01T08:57:20;99436.03;;;23.14;75.64
8101;BME280;4093;53.470;9.832;2023-08-01T08:59:49;99448.78;;;23.08;76.11
8101;BME280;4093;53.470;9.832;2023-08-01T09:02:20;99440.81;;;22.60;76.66
8101;BME280;4093;53.470;9.832;2023-08-01T09:04:49;99438.78;;;22.93;76.03
8101;BME280;4093;53.470;9.832;2023-08-01T09:07:22;99445.41;;;22.58;78.47
8101;BME280;4093;53.470;9.832;2023-08-01T09:09:51;99452.66;;;22.75;78.22
8101;BME280;4093;53.470;9.832;2023-08-01T09:12:19;99447.72;;;22.11;79.82
8101;BME280;4093;53.470;9.832;2023-08-01T09:14:50;99442.78;;;22.17;80.46
8101;BME280;4093;53.470;9.832;2023-08-01T09:17:18;99446.78;;;21.81;80.46
8101;BME280;4093;53.470;9.832;2023-08-01T09:19:46;99445.66;;;21.84;81.63
8101;BME280;4093;53.470;9.832;2023-08-01T09:22:16;99430.44;;;21.57;82.31
8101;BME280;4093;53.470;9.832;2023-08-01T09:24:51;99448.78;;;22.29;79.53
8101;BME280;4093;53.470;9.832;2023-08-01T09:27:20;99442.22;;;22.64;78.46
8101;BME280;4093;53.470;9.832;2023-08-01T09:29:49;99449.44;;;23.78;76.60
8101;BME280;4093;53.470;9.832;2023-08-01T09:32:16;99434.56;;;23.58;75.77
8101;BME280;4093;53.470;9.832;2023-08-01T09:34:58;99439.28;;;24.11;74.38
8101;BME280;4093;53.470;9.832;2023-08-01T09:37:26;99422.88;;;23.80;75.08
8101;BME280;4093;53.470;9.832;2023-08-01T09:40:00;99422.63;;;23.73;73.54
8101;BME280;4093;53.470;9.832;2023-08-01T09:42:37;99420.88;;;23.16;73.12
8101;BME280;4093;53.470;9.832;2023-08-01T09:45:11;99413.94;;;23.15;74.19
8101;BME280;4093;53.470;9.832;2023-08-01T09:47:39;99422.69;;;23.91;71.26
8101;BME280;4093;53.470;9.832;2023-08-01T09:50:09;99425.47;;;24.73;71.00
8101;BME280;4093;53.470;9.832;2023-08-01T09:52:37;99424.25;;;25.73;68.28
8101;BME280;4093;53.470;9.832;2023-08-01T09:55:08;99422.09;;;25.94;66.59
8101;BME280;4093;53.470;9.832;2023-08-01T09:57:37;99417.06;;;26.17;66.84
8101;BME280;4093;53.470;9.832;2023-08-01T10:00:08;99412.66;;;25.66;66.22
8101;BME280;4093;53.470;9.832;2023-08-01T10:02:37;99404.41;;;25.17;66.75
8101;BME280;4093;53.470;9.832;2023-08-01T10:05:06;99411.94;;;24.76;67.56
8101;BME280;4093;53.470;9.832;2023-08-01T10:07:36;99401.06;;;24.33;68.17
8101;BME280;4093;53.470;9.832;2023-08-01T10:10:09;99400.59;;;24.48;68.82
8101;BME280;4093;53.470;9.832;2023-08-01T10:12:37;99411.09;;;24.93;67.86
8101;BME280;4093;53.470;9.832;2023-08-01T10:15:07;99410.06;;;24.40;70.13
8101;BME280;4093;53.470;9.832;2023-08-01T10:17:38;99409.50;;;25.00;67.70
8101;BME280;4093;53.470;9.832;2023-08-01T10:20:07;99409.28;;;25.11;68.32
8101;BME280;4093;53.470;9.832;2023-08-01T10:22:36;99404.13;;;25.28;68.03
8101;BME280;4093;53.470;9.832;2023-08-01T10:25:05;99406.56;;;25.47;66.71
8101;BME280;4093;53.470;9.832;2023-08-01T10:27:36;99410.22;;;25.46;66.53
8101;BME280;4093;53.470;9.832;2023-08-01T10:30:05;99420.00;;;25.28;67.83
8101;BME280;4093;53.470;9.832;2023-08-01T10:32:38;99398.22;;;25.34;66.13
8101;BME280;4093;53.470;9.832;2023-08-01T10:35:07;99387.41;;;24.38;66.20
8101;BME280;4093;53.470;9.832;2023-08-01T10:37:42;99405.13;;;24.28;68.14
8101;BME280;4093;53.470;9.832;2023-08-01T10:40:10;99415.44;;;24.76;68.69
8101;BME280;4093;53.470;9.832;2023-08-01T10:42:44;99407.16;;;24.97;65.59
8101;BME280;4093;53.470;9.832;2023-08-01T10:45:20;99408.97;;;25.58;64.77
8101;BME280;4093;53.470;9.832;2023-08-01T10:47:49;99400.66;;;25.27;65.11
8101;BME280;4093;53.470;9.832;2023-08-01T10:50:17;99403.97;;;26.58;61.00
8101;BME280;4093;53.470;9.832;2023-08-01T10:52:46;99396.47;;;26.03;62.77
8101;BME280;4093;53.470;9.832;2023-08-01T10:55:16;99369.13;;;25.68;62.71
8101;BME280;4093;53.470;9.832;2023-08-01T10:57:48;99419.50;;;26.02;62.25
8101;BME280;4093;53.470;9.832;2023-08-01T11:00:17;99420.13;;;25.96;61.44
8101;BME280;4093;53.470;9.832;2023-08-01T11:02:49;99444.00;;;25.26;62.00
8101;BME280;4093;53.470;9.832;2023-08-01T11:05:18;99467.94;;;23.30;66.31
8101;BME280;4093;53.470;9.832;2023-08-01T11:07:53;99482.88;;;22.71;68.52
8101;BME280;4093;53.470;9.832;2023-08-01T11:10:24;99490.13;;;22.08;72.35
8101;BME280;4093;53.470;9.832;2023-08-01T11:12:55;99496.47;;;22.26;72.72
8101;BME280;4093;53.470;9.832;2023-08-01T11:15:24;99505.59;;;22.22;73.68
8101;BME280;4093;53.470;9.832;2023-08-01T11:17:53;99503.25;;;21.77;77.04
8101;BME280;4093;53.470;9.832;2023-08-01T11:20:23;99522.81;;;22.26;75.43
8101;BME280;4093;53.470;9.832;2023-08-01T11:22:55;99519.72;;;22.52;75.28
8101;BME280;4093;53.470;9.832;2023-08-01T11:25:36;99523.25;;;22.31;75.86
8101;BME280;4093;53.470;9.832;2023-08-01T11:28:11;99544.72;;;22.67;75.28
8101;BME280;4093;53.470;9.832;2023-08-01T11:30:39;99525.00;;;22.61;76.42
8101;BME280;4093;53.470;9.832;2023-08-01T11:33:14;99540.50;;;22.45;77.08
8101;BME280;4093;53.470;9.832;2023-08-01T11:38:10;99548.97;;;22.49;78.45
8101;BME280;4093;53.470;9.832;2023-08-01T11:40:40;99525.63;;;22.34;77.66
8101;BME280;4093;53.470;9.832;2023-08-01T11:43:10;99534.16;;;22.57;77.26
8101;BME280;4093;53.470;9.832;2023-08-01T11:45:48;99521.38;;;22.53;76.55
8101;BME280;4093;53.470;9.832;2023-08-01T11:48:17;99537.41;;;22.80;77.57
8101;BME280;4093;53.470;9.832;2023-08-01T11:50:48;99527.25;;;23.16;78.50
8101;BME280;4093;53.470;9.832;2023-08-01T11:53:19;99511.19;;;24.05;76.55
8101;BME280;4093;53.470;9.832;2023-08-01T11:55:50;99497.41;;;24.49;76.62
8101;BME280;4093;53.470;9.832;2023-08-01T11:58:31;99500.06;;;24.76;73.18
8101;BME280;4093;53.470;9.832;2023-08-01T12:01:03;99491.50;;;24.27;75.11
8101;BME280;4093;53.470;9.832;2023-08-01T12:03:32;99507.34;;;23.90;76.02
8101;BME280;4093;53.470;9.832;2023-08-01T12:06:09;99511.19;;;24.05;74.62
8101;BME280;4093;53.470;9.832;2023-08-01T12:08:41;99515.28;;;23.12;79.26
8101;BME280;4093;53.470;9.832;2023-08-01T12:11:18;99524.03;;;23.81;75.47
8101;BME280;4093;53.470;9.832;2023-08-01T12:13:48;99521.09;;;23.16;77.99
8101;BME280;4093;53.470;9.832;2023-08-01T12:16:27;99517.56;;;22.76;80.08
8101;BME280;4093;53.470;9.832;2023-08-01T12:18:55;99523.19;;;21.38;84.22
8101;BME280;4093;53.470;9.832;2023-08-01T12:21:27;99528.16;;;21.09;86.15
8101;BME280;4093;53.470;9.832;2023-08-01T12:23:54;99532.00;;;19.92;89.34
8101;BME280;4093;53.470;9.832;2023-08-01T12:26:23;99545.59;;;19.75;91.65
8101;BME280;4093;53.470;9.832;2023-08-01T12:28:55;99557.31;;;19.93;91.17
8101;BME280;4093;53.470;9.832;2023-08-01T12:31:23;99567.34;;;20.10;90.00
8101;BME280;4093;53.470;9.832;2023-08-01T12:33:51;99568.97;;;20.58;88.37
8101;BME280;4093;53.470;9.832;2023-08-01T12:36:20;99545.03;;;20.95;85.85
8101;BME280;4093;53.470;9.832;2023-08-01T12:38:48;99557.84;;;21.32;85.23
8101;BME280;4093;53.470;9.832;2023-08-01T12:41:16;99562.16;;;21.65;85.65
8101;BME280;4093;53.470;9.832;2023-08-01T12:43:44;99556.81;;;21.87;87.00
8101;BME280;4093;53.470;9.832;2023-08-01T12:46:13;99550.44;;;22.72;85.51
8101;BME280;4093;53.470;9.832;2023-08-01T12:48:41;99546.09;;;23.21;82.19
8101;BME280;4093;53.470;9.832;2023-08-01T12:51:09;99534.44;;;23.43;82.88
8101;BME280;4093;53.470;9.832;2023-08-01T12:53:37;99531.22;;;23.98;80.24
8101;BME280;4093;53.470;9.832;2023-08-01T12:56:06;99508.75;;;23.65;77.84
8101;BME280;4093;53.470;9.832;2023-08-01T12:58:35;99534.50;;;24.19;81.58
8101;BME280;4093;53.470;9.832;2023-08-01T13:01:03;99511.78;;;24.36;79.30
8101;BME280;4093;53.470;9.832;2023-08-01T13:03:33;99526.56;;;24.66;79.55
8101;BME280;4093;53.470;9.832;2023-08-01T13:06:01;99511.97;;;23.29;81.34
8101;BME280;4093;53.470;9.832;2023-08-01T13:08:29;99532.94;;;24.27;80.31
8101;BME280;4093;53.470;9.832;2023-08-01T13:10:57;99526.91;;;24.44;79.75
8101;BME280;4093;53.470;9.832;2023-08-01T13:13:26;99522.78;;;24.41;79.84
8101;BME280;4093;53.470;9.832;2023-08-01T13:15:56;99516.53;;;23.56;80.07
8101;BME280;4093;53.470;9.832;2023-08-01T13:18:23;99508.09;;;24.19;78.75
8101;BME280;4093;53.470;9.832;2023-08-01T13:20:52;99496.97;;;23.20;78.29
8101;BME280;4093;53.470;9.832;2023-08-01T13:23:20;99511.25;;;23.08;79.74
8101;BME280;4093;53.470;9.832;2023-08-01T13:25:48;99508.38;;;22.61;80.34
8101;BME280;4093;53.470;9.832;2023-08-01T13:28:17;99526.06;;;22.90;82.64
8101;BME280;4093;53.470;9.832;2023-08-01T13:30:45;99516.69;;;22.56;82.12
8101;BME280;4093;53.470;9.832;2023-08-01T13:33:13;99523.09;;;22.73;81.93